createdAt,value
2022-12-31T00:16:17.787Z,12.4
2022-12-31T00:26:20.023Z,12.4
2022-12-31T00:36:22.585Z,12.5
2022-12-31T00:46:24.475Z,12.6
2022-12-31T01:06:28.351Z,12.3
2022-12-31T01:16:30.687Z,12.2
2022-12-31T01:26:33.275Z,12.1
2022-12-31T01:36:35.406Z,12.1
2022-12-31T01:46:37.756Z,12.1
2022-12-31T02:06:41.488Z,12.4
2022-12-31T02:16:44.121Z,12.5
2022-12-31T02:26:45.944Z,12.9
2022-12-31T02:46:50.260Z,13.5
2022-12-31T02:56:52.099Z,13.7
2022-12-31T03:06:54.453Z,13.9
2022-12-31T03:16:56.728Z,14.1
2022-12-31T03:26:59.397Z,14.4
2022-12-31T03:37:01.348Z,14.3
2022-12-31T03:47:03.886Z,14.1
2022-12-31T04:07:08.360Z,13.9
2022-12-31T04:17:10.660Z,13.8
2022-12-31T04:27:12.909Z,13.6
2022-12-31T04:37:14.710Z,13.5
2022-12-31T04:47:21.810Z,13.4
2022-12-31T04:57:19.333Z,13.6
2022-12-31T05:07:21.083Z,14.1
2022-12-31T05:17:22.789Z,14.5
2022-12-31T05:27:25.367Z,15
2022-12-31T05:37:27.508Z,15.2
2022-12-31T05:47:29.375Z,15.4
2022-12-31T05:57:31.704Z,15.6
2022-12-31T06:07:33.396Z,15.8
2022-12-31T06:17:35.775Z,15.8
2022-12-31T06:27:37.688Z,15.8
2022-12-31T06:37:39.344Z,15.7
2022-12-31T06:47:41.387Z,15.9
2022-12-31T06:57:43.795Z,16.1
2022-12-31T07:07:45.940Z,16
2022-12-31T07:17:48.022Z,16.1
2022-12-31T07:27:50.210Z,16.2
2022-12-31T07:37:52.169Z,16.2
2022-12-31T07:47:58.963Z,16.3
2022-12-31T07:57:56.747Z,16.2
2022-12-31T08:07:58.769Z,16.3
2022-12-31T08:28:02.875Z,16.3
2022-12-31T08:38:05.035Z,16.3
2022-12-31T08:48:07.599Z,16.6
2022-12-31T08:58:09.898Z,16.6
2022-12-31T09:08:11.733Z,16.7
2022-12-31T09:18:13.910Z,16.8
2022-12-31T09:28:15.954Z,16.8
2022-12-31T09:38:17.669Z,16.9
2022-12-31T09:48:19.863Z,16.4
2022-12-31T09:58:22.293Z,16.5
2022-12-31T10:08:24.560Z,16.6
2022-12-31T10:18:26.435Z,16.1
2022-12-31T10:28:28.974Z,16.3
2022-12-31T10:38:30.855Z,16.5
2022-12-31T10:48:32.782Z,16.7
2022-12-31T10:58:35.387Z,16.7
2022-12-31T11:08:38.172Z,16.8
2022-12-31T11:18:40.446Z,17
2022-12-31T11:28:42.703Z,17.2
2022-12-31T11:38:44.752Z,17.3
2022-12-31T11:48:46.793Z,17.2
2022-12-31T11:58:48.514Z,17
2022-12-31T12:08:50.560Z,17
2022-12-31T12:18:52.283Z,17
2022-12-31T12:38:56.818Z,16.6
2022-12-31T12:48:59.432Z,16.4
2022-12-31T12:59:01.508Z,15.7
2022-12-31T13:09:03.950Z,15.4
2022-12-31T13:19:06.116Z,15.5
2022-12-31T13:29:07.881Z,15.7
2022-12-31T13:39:10.558Z,16
2022-12-31T13:49:13.207Z,16.2
2022-12-31T13:59:15.285Z,16.4
2022-12-31T14:09:17.361Z,16.2
2022-12-31T14:19:19.104Z,15.7
2022-12-31T14:39:24.250Z,16.1
2022-12-31T14:49:26.476Z,16.2
2022-12-31T14:59:28.848Z,16.2
2022-12-31T15:09:31.004Z,16.1
2022-12-31T15:19:33.587Z,16
2022-12-31T15:29:36.091Z,15.7
2022-12-31T15:39:38.549Z,15.5
2022-12-31T15:49:40.565Z,15.4
2022-12-31T15:59:42.486Z,15.3
2022-12-31T16:09:44.177Z,15.4
2022-12-31T16:19:46.094Z,15.4
2022-12-31T16:29:52.329Z,15.9
2022-12-31T16:39:50.755Z,16.1
2022-12-31T16:49:53.433Z,16.2
2022-12-31T16:59:55.913Z,16.3
2022-12-31T17:09:57.782Z,16.2
2022-12-31T17:20:00.449Z,16.1
2022-12-31T17:40:49.083Z,16.1
2022-12-31T17:50:07.397Z,16.2
2022-12-31T18:00:09.371Z,16.2
2022-12-31T18:10:11.622Z,16.1
2022-12-31T18:20:13.638Z,16
2022-12-31T18:40:18.296Z,15.8
2022-12-31T18:50:20.356Z,15.8
2022-12-31T19:00:22.509Z,15.6
2022-12-31T19:10:24.280Z,15.6
2022-12-31T19:20:26.020Z,15.5
2022-12-31T19:30:28.327Z,15.5
2022-12-31T19:40:30.157Z,15.6
2022-12-31T19:50:32.528Z,15.7
2022-12-31T20:00:35.169Z,15.6
2022-12-31T20:02:02.591Z,15.6
2022-12-31T20:10:45.714Z,15.6
2022-12-31T20:20:51.694Z,15.5
2022-12-31T20:30:50.205Z,15.7
2022-12-31T20:40:52.717Z,15.7
2022-12-31T20:50:54.876Z,15.8
2022-12-31T21:00:57.161Z,15.9
2022-12-31T21:10:58.980Z,16
2022-12-31T21:21:01.221Z,16
2022-12-31T21:31:03.900Z,16.1
2022-12-31T21:51:07.566Z,16
2022-12-31T22:01:10.009Z,16
2022-12-31T22:11:12.472Z,16.3
2022-12-31T22:21:18.688Z,16.2
2022-12-31T22:51:20.692Z,16.3
2022-12-31T23:01:22.982Z,16.3
2022-12-31T23:11:24.866Z,16.4
2022-12-31T23:21:27.327Z,16.6
2022-12-31T23:31:29.785Z,16.5
2022-12-31T23:41:31.956Z,16.5
2022-12-31T23:51:34.452Z,16.4
